createdAt,value
2023-04-14T00:00:47.257Z,18.88
2023-04-14T00:03:14.785Z,18.90
2023-04-14T00:05:43.242Z,18.88
2023-04-14T00:08:11.466Z,18.91
2023-04-14T00:10:38.650Z,18.93
2023-04-14T00:13:05.861Z,18.95
2023-04-14T00:15:33.234Z,18.95
2023-04-14T00:18:00.532Z,18.94
2023-04-14T00:20:27.836Z,18.83
2023-04-14T00:22:55.285Z,18.84
2023-04-14T00:25:24.780Z,18.78
2023-04-14T00:27:52.038Z,18.78
2023-04-14T00:30:19.116Z,18.77
2023-04-14T00:32:51.680Z,18.78
2023-04-14T00:35:18.984Z,18.75
2023-04-14T00:37:48.287Z,18.72
2023-04-14T00:40:17.909Z,18.73
2023-04-14T00:42:48.447Z,18.72
2023-04-14T00:45:18.062Z,18.73
2023-04-14T00:47:50.426Z,18.73
2023-04-14T00:50:19.295Z,18.72
2023-04-14T00:52:49.912Z,18.75
2023-04-14T00:55:20.182Z,18.64
2023-04-14T00:57:50.927Z,18.67
2023-04-14T01:00:21.887Z,18.64
2023-04-14T01:02:53.404Z,18.43
2023-04-14T01:05:22.079Z,18.47
2023-04-14T01:07:53.340Z,18.47
2023-04-14T01:10:27.204Z,18.45
2023-04-14T01:13:33.667Z,18.21
2023-04-14T01:16:07.871Z,18.23
2023-04-14T01:19:01.306Z,18.17
2023-04-14T01:21:36.159Z,18.05
2023-04-14T01:24:24.778Z,18.02
2023-04-14T01:27:03.572Z,17.99
2023-04-14T01:29:55.229Z,17.88
2023-04-14T01:32:27.289Z,17.88
2023-04-14T01:34:59.007Z,17.86
2023-04-14T01:37:44.401Z,17.79
2023-04-14T01:40:16.950Z,17.72
2023-04-14T01:42:48.855Z,17.70
2023-04-14T01:45:29.215Z,17.49
2023-04-14T01:47:58.652Z,17.64
2023-04-14T01:50:30.273Z,17.66
2023-04-14T01:53:01.425Z,17.53
2023-04-14T01:55:31.268Z,17.64
2023-04-14T01:58:01.784Z,17.64
2023-04-14T02:00:31.158Z,17.68
2023-04-14T02:03:03.207Z,17.68
2023-04-14T02:05:38.372Z,17.64
2023-04-14T02:08:13.194Z,17.51
2023-04-14T02:10:46.621Z,17.58
2023-04-14T02:13:15.958Z,17.57
2023-04-14T02:15:44.407Z,17.49
2023-04-14T02:18:12.565Z,17.55
2023-04-14T02:20:48.086Z,17.57
2023-04-14T02:23:16.346Z,17.53
2023-04-14T02:25:55.292Z,17.50
2023-04-14T02:28:31.438Z,17.51
2023-04-14T02:31:03.248Z,17.50
2023-04-14T02:33:37.752Z,17.52
2023-04-14T02:36:22.610Z,17.49
2023-04-14T02:38:58.660Z,17.51
2023-04-14T02:41:31.689Z,17.46
2023-04-14T02:44:34.842Z,17.28
2023-04-14T02:47:07.688Z,17.39
2023-04-14T02:49:45.168Z,17.41
2023-04-14T02:52:15.751Z,17.42
2023-04-14T02:54:46.743Z,17.32
2023-04-14T02:57:15.370Z,17.33
2023-04-14T02:59:47.340Z,17.32
2023-04-14T03:02:19.421Z,17.30
2023-04-14T03:04:55.057Z,17.16
2023-04-14T03:07:35.016Z,17.24
2023-04-14T03:10:06.504Z,17.15
2023-04-14T03:12:36.314Z,17.20
2023-04-14T03:15:07.454Z,17.20
2023-04-14T03:17:38.336Z,17.21
2023-04-14T03:20:10.663Z,17.24
2023-04-14T03:22:41.938Z,17.20
2023-04-14T03:25:12.740Z,17.28
2023-04-14T03:27:44.785Z,17.27
2023-04-14T03:30:14.049Z,17.31
2023-04-14T03:32:47.174Z,17.29
2023-04-14T03:35:18.404Z,17.26
2023-04-14T03:37:48.797Z,17.27
2023-04-14T03:40:19.286Z,17.22
2023-04-14T03:42:49.311Z,17.09
2023-04-14T03:45:24.281Z,17.03
2023-04-14T03:48:02.715Z,16.80
2023-04-14T03:50:43.564Z,16.76
2023-04-14T03:53:16.492Z,16.83
2023-04-14T03:55:45.835Z,16.78
2023-04-14T03:58:21.773Z,16.49
2023-04-14T04:00:53.585Z,16.36
2023-04-14T04:03:23.173Z,16.48
2023-04-14T04:05:51.042Z,16.45
2023-04-14T04:08:19.062Z,16.62
2023-04-14T04:10:49.265Z,16.59
2023-04-14T04:13:21.085Z,16.48
2023-04-14T04:15:52.291Z,16.68
2023-04-14T04:18:25.840Z,16.60
2023-04-14T04:20:56.214Z,16.61
2023-04-14T04:23:35.116Z,16.70
2023-04-14T04:26:03.020Z,16.74
2023-04-14T04:28:36.951Z,16.72
2023-04-14T04:31:06.441Z,16.77
2023-04-14T04:33:37.566Z,16.61
2023-04-14T04:36:06.726Z,16.58
2023-04-14T04:38:39.589Z,16.60
2023-04-14T04:41:07.589Z,16.45
2023-04-14T04:43:38.357Z,16.38
2023-04-14T04:46:38.156Z,16.32
2023-04-14T04:49:15.046Z,16.25
2023-04-14T04:51:43.809Z,16.21
2023-04-14T04:54:11.310Z,16.23
2023-04-14T04:56:38.596Z,16.28
2023-04-14T04:59:06.772Z,16.19
2023-04-14T05:01:34.141Z,16.28
2023-04-14T05:04:03.895Z,16.34
2023-04-14T05:06:34.735Z,16.28
2023-04-14T05:09:09.415Z,16.16
2023-04-14T05:11:36.884Z,16.24
2023-04-14T05:14:04.483Z,16.23
2023-04-14T05:16:34.118Z,16.27
2023-04-14T05:19:03.364Z,16.18
2023-04-14T05:21:30.764Z,16.18
2023-04-14T05:24:00.890Z,16.18
2023-04-14T05:26:48.816Z,16.21
2023-04-14T05:29:20.870Z,16.17
2023-04-14T05:31:48.689Z,16.28
2023-04-14T05:34:16.376Z,16.28
2023-04-14T05:36:43.897Z,16.24
2023-04-14T05:39:11.346Z,16.24
2023-04-14T05:41:39.207Z,16.22
2023-04-14T05:44:06.600Z,16.23
2023-04-14T05:46:38.535Z,16.23
2023-04-14T05:49:05.862Z,16.28
2023-04-14T05:51:33.320Z,16.30
2023-04-14T05:54:00.693Z,16.30
2023-04-14T05:56:30.320Z,16.30
2023-04-14T05:58:58.441Z,16.33
2023-04-14T06:01:25.945Z,16.32
2023-04-14T06:03:58.193Z,16.38
2023-04-14T06:06:26.759Z,16.37
2023-04-14T06:08:57.140Z,16.49
2023-04-14T06:11:27.363Z,16.47
2023-04-14T06:13:57.973Z,16.47
2023-04-14T06:16:26.098Z,16.53
2023-04-14T06:18:55.804Z,16.63
2023-04-14T06:21:26.475Z,16.59
2023-04-14T06:23:56.865Z,16.49
2023-04-14T06:26:35.488Z,16.69
2023-04-14T06:29:08.059Z,16.62
2023-04-14T06:31:39.563Z,16.67
2023-04-14T06:34:10.214Z,16.72
2023-04-14T06:36:39.848Z,16.81
2023-04-14T06:39:07.249Z,16.93
2023-04-14T06:41:37.052Z,16.91
2023-04-14T06:44:05.575Z,16.90
2023-04-14T06:46:36.144Z,16.94
2023-04-14T06:49:04.031Z,16.95
2023-04-14T06:51:36.743Z,17.04
2023-04-14T06:54:08.706Z,16.86
2023-04-14T06:56:41.520Z,17.03
2023-04-14T06:59:09.302Z,17.05
2023-04-14T07:01:36.918Z,17.07
2023-04-14T07:04:12.811Z,17.16
2023-04-14T07:06:40.254Z,17.21
2023-04-14T07:09:10.722Z,17.23
2023-04-14T07:11:43.538Z,17.32
2023-04-14T07:14:11.209Z,17.37
2023-04-14T07:16:39.073Z,17.45
2023-04-14T07:19:06.607Z,17.40
2023-04-14T07:21:34.037Z,17.55
2023-04-14T07:24:01.972Z,17.63
2023-04-14T07:26:33.281Z,17.55
2023-04-14T07:29:09.470Z,17.71
2023-04-14T07:31:38.330Z,17.73
2023-04-14T07:34:11.786Z,17.82
2023-04-14T07:36:39.239Z,17.81
2023-04-14T07:39:10.304Z,17.86
2023-04-14T07:41:40.460Z,17.97
2023-04-14T07:44:08.714Z,18.03
2023-04-14T07:46:35.952Z,18.06
2023-04-14T07:49:07.508Z,17.90
2023-04-14T07:51:34.681Z,17.84
2023-04-14T07:54:04.520Z,17.93
2023-04-14T07:56:37.806Z,17.88
2023-04-14T07:59:13.545Z,17.73
2023-04-14T08:01:43.752Z,17.97
2023-04-14T08:04:11.516Z,17.71
2023-04-14T08:06:44.500Z,17.65
2023-04-14T08:09:19.198Z,17.99
2023-04-14T08:11:46.551Z,17.98
2023-04-14T08:14:13.807Z,17.98
2023-04-14T08:16:41.912Z,18.12
2023-04-14T08:19:09.031Z,17.97
2023-04-14T08:21:37.957Z,18.03
2023-04-14T08:24:06.891Z,18.03
2023-04-14T08:26:34.674Z,18.08
2023-04-14T08:29:08.287Z,18.07
2023-04-14T08:31:37.808Z,18.31
2023-04-14T08:34:05.134Z,18.43
2023-04-14T08:36:35.634Z,18.38
2023-04-14T08:39:05.557Z,18.65
2023-04-14T08:41:35.227Z,18.61
2023-04-14T08:44:02.850Z,18.69
2023-04-14T08:46:38.965Z,18.73
2023-04-14T08:49:13.372Z,18.76
2023-04-14T08:51:47.940Z,18.45
2023-04-14T08:54:24.629Z,18.62
2023-04-14T08:56:53.412Z,18.55
2023-04-14T08:59:21.870Z,18.75
2023-04-14T09:01:52.409Z,18.84
2023-04-14T09:04:24.657Z,19.05
2023-04-14T09:06:56.100Z,19.00
2023-04-14T09:09:24.866Z,18.75
2023-04-14T09:11:52.584Z,18.84
2023-04-14T09:14:21.101Z,19.02
2023-04-14T09:16:49.344Z,18.05
2023-04-14T09:19:17.842Z,18.61
2023-04-14T09:21:53.644Z,18.80
2023-04-14T09:24:32.476Z,18.93
2023-04-14T09:27:14.460Z,18.98
2023-04-14T09:29:46.754Z,18.82
2023-04-14T09:32:17.674Z,19.35
2023-04-14T09:34:56.626Z,19.62
2023-04-14T09:37:26.740Z,19.08
2023-04-14T09:39:56.194Z,20.01
2023-04-14T09:42:39.677Z,20.32
2023-04-14T09:45:08.612Z,20.41
2023-04-14T09:47:36.030Z,20.66
2023-04-14T09:50:04.937Z,20.56
2023-04-14T09:52:43.114Z,20.78
2023-04-14T09:55:12.590Z,20.73
2023-04-14T09:57:44.885Z,20.78
2023-04-14T10:00:21.784Z,20.95
2023-04-14T10:02:58.812Z,21.04
2023-04-14T10:05:34.757Z,21.59
2023-04-14T10:08:04.033Z,21.33
2023-04-14T10:10:31.651Z,21.54
2023-04-14T10:13:00.967Z,21.48
2023-04-14T10:15:28.387Z,20.69
2023-04-14T10:18:07.254Z,20.71
2023-04-14T10:20:49.692Z,21.04
2023-04-14T10:23:29.396Z,20.76
2023-04-14T10:25:59.508Z,21.02
2023-04-14T10:28:36.190Z,21.09
2023-04-14T10:31:11.006Z,21.68
2023-04-14T10:33:45.209Z,22.43
2023-04-14T10:36:29.381Z,21.99
2023-04-14T10:39:06.004Z,21.49
2023-04-14T10:41:49.088Z,22.37
2023-04-14T10:44:33.653Z,22.37
2023-04-14T10:47:02.641Z,22.64
2023-04-14T10:49:42.286Z,22.55
2023-04-14T10:52:15.496Z,22.21
2023-04-14T10:55:09.629Z,23.00
2023-04-14T10:57:45.105Z,22.90
2023-04-14T11:00:27.865Z,23.07
2023-04-14T11:03:10.440Z,23.20
2023-04-14T11:05:48.438Z,23.25
2023-04-14T11:08:25.302Z,23.86
2023-04-14T11:11:09.894Z,24.30
2023-04-14T11:13:41.640Z,23.51
2023-04-14T11:16:09.521Z,23.08
2023-04-14T11:18:45.626Z,23.56
2023-04-14T11:21:18.421Z,23.59
2023-04-14T11:23:47.017Z,23.13
2023-04-14T11:26:14.498Z,22.95
2023-04-14T11:28:44.961Z,23.07
2023-04-14T11:31:16.325Z,23.11
2023-04-14T11:33:44.944Z,22.96
2023-04-14T11:36:16.105Z,23.06
2023-04-14T11:38:43.577Z,22.90
2023-04-14T11:41:14.544Z,23.13
2023-04-14T11:43:47.271Z,22.87
2023-04-14T11:46:16.579Z,23.01
2023-04-14T11:48:44.441Z,23.22
2023-04-14T11:51:11.874Z,23.12
2023-04-14T11:53:43.510Z,23.73
2023-04-14T11:56:15.617Z,23.99
2023-04-14T11:58:43.264Z,23.92
2023-04-14T12:01:36.157Z,23.47
2023-04-14T12:04:07.302Z,23.38
2023-04-14T12:06:41.861Z,23.68
2023-04-14T12:09:15.002Z,23.96
2023-04-14T12:11:54.631Z,22.65
2023-04-14T12:14:36.404Z,23.46
2023-04-14T12:17:08.306Z,23.22
2023-04-14T12:19:41.705Z,23.38
2023-04-14T12:22:31.638Z,22.62
2023-04-14T12:25:02.448Z,22.69
2023-04-14T12:27:37.916Z,23.66
2023-04-14T12:30:18.161Z,23.74
2023-04-14T12:32:50.504Z,23.40
2023-04-14T12:35:38.859Z,23.30
2023-04-14T12:38:30.337Z,23.82
2023-04-14T12:44:01.555Z,22.99
2023-04-14T12:46:39.165Z,23.64
2023-04-14T12:49:43.746Z,23.86
2023-04-14T12:52:37.811Z,23.62
2023-04-14T12:55:21.414Z,23.51
2023-04-14T12:57:54.212Z,23.98
2023-04-14T13:00:23.825Z,23.91
2023-04-14T13:02:51.718Z,24.21
2023-04-14T13:05:19.755Z,24.12
2023-04-14T13:07:47.527Z,24.38
2023-04-14T13:10:18.177Z,24.36
2023-04-14T13:12:46.277Z,25.09
2023-04-14T13:16:10.589Z,24.10
2023-04-14T13:18:07.356Z,23.51
2023-04-14T13:20:39.764Z,24.02
2023-04-14T13:23:11.690Z,24.19
2023-04-14T13:25:40.178Z,24.29
2023-04-14T13:28:09.080Z,23.75
2023-04-14T13:30:40.839Z,24.09
2023-04-14T13:33:12.997Z,25.12
2023-04-14T13:35:41.490Z,24.62
2023-04-14T13:38:11.295Z,24.96
2023-04-14T13:40:46.112Z,24.05
2023-04-14T13:43:21.265Z,23.68
2023-04-14T13:45:58.038Z,23.38
2023-04-14T13:48:26.121Z,22.60
2023-04-14T13:50:56.912Z,21.60
2023-04-14T13:53:26.639Z,22.18
2023-04-14T13:55:59.126Z,22.47
2023-04-14T13:58:27.164Z,22.70
2023-04-14T14:00:56.906Z,22.23
2023-04-14T14:03:26.541Z,22.26
2023-04-14T14:05:58.041Z,22.41
2023-04-14T14:08:30.919Z,22.10
2023-04-14T14:11:01.639Z,21.99
2023-04-14T14:13:30.228Z,21.82
2023-04-14T14:16:08.217Z,21.38
2023-04-14T14:18:46.922Z,22.25
2023-04-14T14:21:17.643Z,21.80
2023-04-14T14:23:47.943Z,21.62
2023-04-14T14:26:20.952Z,21.88
2023-04-14T14:28:51.153Z,21.74
2023-04-14T14:31:19.497Z,21.35
2023-04-14T14:33:48.944Z,21.46
2023-04-14T14:36:19.379Z,21.84
2023-04-14T14:38:48.520Z,22.49
2023-04-14T14:41:15.984Z,21.80
2023-04-14T14:43:46.097Z,21.81
2023-04-14T14:46:13.600Z,21.90
2023-04-14T14:48:40.984Z,21.95
2023-04-14T14:51:20.238Z,21.51
2023-04-14T14:53:52.175Z,21.57
2023-04-14T14:56:22.247Z,21.62
2023-04-14T14:58:51.280Z,21.16
2023-04-14T15:01:23.706Z,21.62
2023-04-14T15:04:01.029Z,21.09
2023-04-14T15:06:35.401Z,21.10
2023-04-14T15:09:04.071Z,21.33
2023-04-14T15:11:31.713Z,21.18
2023-04-14T15:13:59.812Z,21.18
2023-04-14T15:16:30.944Z,20.53
2023-04-14T15:19:12.194Z,21.10
2023-04-14T15:21:52.512Z,21.45
2023-04-14T15:24:23.527Z,21.20
2023-04-14T15:26:53.250Z,21.87
2023-04-14T15:29:26.948Z,21.84
2023-04-14T15:31:54.155Z,21.12
2023-04-14T15:34:23.096Z,21.42
2023-04-14T15:36:52.808Z,21.42
2023-04-14T15:39:23.443Z,21.12
2023-04-14T15:41:52.198Z,21.13
2023-04-14T15:44:19.255Z,21.28
2023-04-14T15:46:46.594Z,21.54
2023-04-14T15:49:14.261Z,21.57
2023-04-14T15:51:41.502Z,21.91
2023-04-14T15:54:09.197Z,21.66
2023-04-14T15:56:37.365Z,21.78
2023-04-14T15:59:07.176Z,21.63
2023-04-14T16:01:34.572Z,21.40
2023-04-14T16:04:02.106Z,21.36
2023-04-14T16:06:32.929Z,21.44
2023-04-14T16:09:01.341Z,21.62
2023-04-14T16:11:33.756Z,21.96
2023-04-14T16:14:01.650Z,22.10
2023-04-14T16:16:29.288Z,21.26
2023-04-14T16:18:59.367Z,20.73
2023-04-14T16:21:29.627Z,21.23
2023-04-14T16:23:59.546Z,21.12
2023-04-14T16:26:28.743Z,21.41
2023-04-14T16:29:00.747Z,21.41
2023-04-14T16:31:32.234Z,21.09
2023-04-14T16:33:59.512Z,20.57
2023-04-14T16:36:29.489Z,21.05
2023-04-14T16:38:56.769Z,20.27
2023-04-14T16:41:24.325Z,20.55
2023-04-14T16:43:51.771Z,20.94
2023-04-14T16:46:18.939Z,20.75
2023-04-14T16:48:48.555Z,21.26
2023-04-14T16:51:15.874Z,21.57
2023-04-14T16:53:46.091Z,21.40
2023-04-14T16:56:13.388Z,21.50
2023-04-14T16:58:45.509Z,21.30
2023-04-14T17:01:18.712Z,21.48
2023-04-14T17:03:46.190Z,22.08
2023-04-14T17:06:17.246Z,21.96
2023-04-14T17:08:45.097Z,21.42
2023-04-14T17:11:12.292Z,22.08
2023-04-14T17:13:46.337Z,22.18
2023-04-14T17:16:19.979Z,22.09
2023-04-14T17:18:48.437Z,22.55
2023-04-14T17:21:17.938Z,22.14
2023-04-14T17:23:45.341Z,22.16
2023-04-14T17:26:17.078Z,22.15
2023-04-14T17:28:47.548Z,22.07
2023-04-14T17:31:14.838Z,22.17
2023-04-14T17:33:45.486Z,21.60
2023-04-14T17:36:17.735Z,21.55
2023-04-14T17:38:48.456Z,21.88
2023-04-14T17:41:15.646Z,21.05
2023-04-14T17:43:45.445Z,21.28
2023-04-14T17:46:17.826Z,21.23
2023-04-14T17:48:45.362Z,21.03
2023-04-14T17:51:14.234Z,21.60
2023-04-14T17:53:43.246Z,21.65
2023-04-14T17:56:11.752Z,21.23
2023-04-14T17:58:39.346Z,21.49
2023-04-14T18:01:10.646Z,21.33
2023-04-14T18:03:38.127Z,21.49
2023-04-14T18:06:05.840Z,21.22
2023-04-14T18:08:35.418Z,21.59
2023-04-14T18:11:03.241Z,21.81
2023-04-14T18:13:30.813Z,22.03
2023-04-14T18:15:58.575Z,22.04
2023-04-14T18:18:26.608Z,21.43
2023-04-14T18:20:56.642Z,21.78
2023-04-14T18:23:28.304Z,21.74
2023-04-14T18:28:43.615Z,21.94
2023-04-14T18:31:14.928Z,21.70
2023-04-14T18:33:42.195Z,21.98
2023-04-14T18:36:09.670Z,22.11
2023-04-14T18:38:44.454Z,21.87
2023-04-14T18:41:15.850Z,21.72
2023-04-14T18:43:44.328Z,21.79
2023-04-14T18:46:12.318Z,21.90
2023-04-14T18:48:43.740Z,21.89
2023-04-14T18:51:19.195Z,21.46
2023-04-14T18:53:49.756Z,21.71
2023-04-14T18:56:19.522Z,21.76
2023-04-14T18:58:46.886Z,21.78
2023-04-14T19:01:17.851Z,21.21
2023-04-14T19:03:47.947Z,21.70
2023-04-14T19:06:18.426Z,21.56
2023-04-14T19:08:57.606Z,21.70
2023-04-14T19:12:50.674Z,21.17
2023-04-14T19:16:08.876Z,21.62
2023-04-14T19:18:40.121Z,21.25
2023-04-14T19:25:39.663Z,20.98
2023-04-14T19:28:10.428Z,20.69
2023-04-14T19:30:44.281Z,21.37
2023-04-14T19:33:19.351Z,21.56
2023-04-14T19:35:52.028Z,20.58
2023-04-14T19:38:28.171Z,20.76
2023-04-14T19:40:59.114Z,20.49
2023-04-14T19:43:37.821Z,21.00
2023-04-14T19:46:10.168Z,20.54
2023-04-14T19:48:52.149Z,20.89
2023-04-14T19:51:22.262Z,20.67
2023-04-14T19:53:53.207Z,20.69
2023-04-14T19:56:25.237Z,20.77
2023-04-14T19:59:01.266Z,20.72
2023-04-14T20:01:32.744Z,20.98
2023-04-14T20:04:08.392Z,21.17
2023-04-14T20:06:49.377Z,21.37
2023-04-14T20:09:28.848Z,21.43
2023-04-14T20:12:06.922Z,21.41
2023-04-14T20:14:41.968Z,21.62
2023-04-14T20:17:09.520Z,21.63
2023-04-14T20:19:44.631Z,21.57
2023-04-14T20:22:15.975Z,21.77
2023-04-14T20:24:54.676Z,21.99
2023-04-14T20:27:24.164Z,21.95
2023-04-14T20:29:51.590Z,22.15
2023-04-14T20:32:30.747Z,22.28
2023-04-14T20:34:59.860Z,22.18
2023-04-14T20:37:29.751Z,22.30
2023-04-14T20:40:07.854Z,22.29
2023-04-14T20:42:40.315Z,22.32
2023-04-14T20:45:22.614Z,22.05
2023-04-14T20:48:00.191Z,22.49
2023-04-14T20:50:36.077Z,22.45
2023-04-14T20:53:05.915Z,22.24
2023-04-14T20:55:33.217Z,22.23
2023-04-14T20:58:07.872Z,22.31
2023-04-14T21:00:35.818Z,22.35
2023-04-14T21:03:05.848Z,22.36
2023-04-14T21:05:33.565Z,22.03
2023-04-14T21:08:03.194Z,22.31
2023-04-14T21:10:30.674Z,22.25
2023-04-14T21:15:30.321Z,22.13
2023-04-14T21:15:57.022Z,22.32
2023-04-14T21:18:24.795Z,22.38
2023-04-14T21:20:58.717Z,22.39
2023-04-14T21:23:31.205Z,22.43
2023-04-14T21:26:03.166Z,22.44
2023-04-14T21:28:39.994Z,22.44
2023-04-14T21:31:11.854Z,22.18
2023-04-14T21:33:41.956Z,22.08
2023-04-14T21:36:21.422Z,22.03
2023-04-14T21:38:48.713Z,21.60
2023-04-14T21:41:18.762Z,21.60
2023-04-14T21:43:50.865Z,21.57
2023-04-14T21:46:18.691Z,21.47
2023-04-14T21:48:48.678Z,21.23
2023-04-14T21:51:29.908Z,21.12
2023-04-14T21:54:00.541Z,21.11
2023-04-14T21:56:38.508Z,20.97
2023-04-14T21:59:09.555Z,20.60
2023-04-14T22:01:38.761Z,20.85
2023-04-14T22:04:22.045Z,20.65
2023-04-14T22:07:03.521Z,20.75
2023-04-14T22:09:37.458Z,20.56
2023-04-14T22:12:09.274Z,20.50
2023-04-14T22:14:45.961Z,20.39
2023-04-14T22:17:25.915Z,20.45
2023-04-14T22:19:59.591Z,20.48
2023-04-14T22:22:38.627Z,20.55
2023-04-14T22:25:20.388Z,20.40
2023-04-14T22:27:58.200Z,20.39
2023-04-14T22:30:39.639Z,20.28
2023-04-14T22:33:17.471Z,20.21
2023-04-14T22:35:48.898Z,20.18
2023-04-14T22:38:22.098Z,20.03
2023-04-14T22:40:52.747Z,19.98
2023-04-14T22:43:23.495Z,19.82
2023-04-14T22:46:17.647Z,19.95
2023-04-14T22:48:57.545Z,19.85
2023-04-14T22:51:31.918Z,19.81
2023-04-14T22:54:04.398Z,19.94
2023-04-14T22:56:45.899Z,19.90
2023-04-14T22:59:18.308Z,19.95
2023-04-14T23:01:55.467Z,20.00
2023-04-14T23:04:34.285Z,20.01
2023-04-14T23:07:22.657Z,20.00
2023-04-14T23:09:58.447Z,20.03
2023-04-14T23:12:28.718Z,20.05
2023-04-14T23:14:58.932Z,20.08
2023-04-14T23:17:40.205Z,20.08
2023-04-14T23:20:20.831Z,19.99
2023-04-14T23:22:51.833Z,20.02
2023-04-14T23:28:10.753Z,20.06
2023-04-14T23:30:53.605Z,20.06
2023-04-14T23:33:28.924Z,20.06
2023-04-14T23:36:01.582Z,20.03
2023-04-14T23:38:32.593Z,20.05
2023-04-14T23:41:15.308Z,20.07
2023-04-14T23:43:55.376Z,20.01
2023-04-14T23:46:29.810Z,20.11
2023-04-14T23:49:24.188Z,20.00
2023-04-14T23:52:05.386Z,20.00
2023-04-14T23:54:38.841Z,20.05
2023-04-14T23:57:21.871Z,19.96
2023-04-14T23:59:59.992Z,20.00
